createdAt,value
2024-01-24T00:00:09.347Z,101322.75
2024-01-24T00:02:39.635Z,101321.03
2024-01-24T00:05:07.587Z,101306.13
2024-01-24T00:07:34.681Z,101320.97
2024-01-24T00:10:03.650Z,101303.47
2024-01-24T00:12:30.717Z,101294.75
2024-01-24T00:14:58.362Z,101285.09
2024-01-24T00:17:25.466Z,101269.38
2024-01-24T00:19:52.512Z,101298.22
2024-01-24T00:22:19.557Z,101293.78
2024-01-24T00:24:46.546Z,101293.81
2024-01-24T00:27:13.755Z,101296.44
2024-01-24T00:29:41.419Z,101299.94
2024-01-24T00:32:08.418Z,101302.53
2024-01-24T00:34:35.479Z,101296.38
2024-01-24T00:37:02.546Z,101287.66
2024-01-24T00:39:29.635Z,101264.94
2024-01-24T00:41:59.461Z,101281.53
2024-01-24T00:44:26.496Z,101271.03
2024-01-24T00:46:53.557Z,101260.53
2024-01-24T00:49:20.790Z,101263.13
2024-01-24T00:51:47.981Z,101235.16
2024-01-24T00:54:15.263Z,101250.88
2024-01-24T00:56:42.418Z,101254.34
2024-01-24T00:59:09.664Z,101261.34
2024-01-24T01:01:36.875Z,101236.81
2024-01-24T01:04:05.296Z,101257.78
2024-01-24T01:06:32.423Z,101254.25
2024-01-24T01:09:01.288Z,101256.88
2024-01-24T01:11:28.778Z,101248.97
2024-01-24T01:13:55.713Z,101241.97
2024-01-24T01:16:22.812Z,101235.88
2024-01-24T01:18:49.791Z,101232.34
2024-01-24T01:21:17.002Z,101235.81
2024-01-24T01:23:44.024Z,101236.69
2024-01-24T01:26:10.989Z,101238.44
2024-01-24T01:28:37.999Z,101219.19
2024-01-24T01:31:05.390Z,101235.78
2024-01-24T01:33:32.465Z,101230.53
2024-01-24T01:36:09.220Z,101241.91
2024-01-24T01:38:44.880Z,101241.91
2024-01-24T01:41:12.485Z,101240.97
2024-01-24T01:43:39.524Z,101238.38
2024-01-24T01:46:20.260Z,101241.91
2024-01-24T01:48:49.527Z,101212.94
2024-01-24T01:51:23.307Z,101224.31
2024-01-24T01:53:50.917Z,101221.66
2024-01-24T01:56:21.004Z,101229.47
2024-01-24T01:58:49.361Z,101207.53
2024-01-24T02:01:16.925Z,101189.16
2024-01-24T02:03:48.344Z,101190.81
2024-01-24T02:06:15.525Z,101179.56
2024-01-24T02:08:44.853Z,101165.56
2024-01-24T02:11:12.818Z,101171.59
2024-01-24T02:13:39.863Z,101168.09
2024-01-24T02:16:07.550Z,101151.44
2024-01-24T02:18:34.618Z,101140.94
2024-01-24T02:21:01.866Z,101159.22
2024-01-24T02:23:31.281Z,101157.53
2024-01-24T02:25:58.885Z,101161.81
2024-01-24T02:28:26.042Z,101157.44
2024-01-24T02:30:53.153Z,101168.78
2024-01-24T02:33:20.519Z,101162.69
2024-01-24T02:35:47.597Z,101148.50
2024-01-24T02:38:14.609Z,101138.00
2024-01-24T02:40:42.010Z,101136.25
2024-01-24T02:43:08.946Z,101144.97
2024-01-24T02:45:35.899Z,101145.91
2024-01-24T02:48:02.993Z,101147.63
2024-01-24T02:50:29.989Z,101130.09
2024-01-24T02:52:56.928Z,101128.22
2024-01-24T02:55:23.910Z,101130.84
2024-01-24T02:57:51.008Z,101161.50
2024-01-24T03:00:18.697Z,101147.50
2024-01-24T03:02:45.633Z,101147.50
2024-01-24T03:05:12.666Z,101142.22
2024-01-24T03:07:42.114Z,101129.16
2024-01-24T03:10:09.681Z,101135.22
2024-01-24T03:12:37.020Z,101144.84
2024-01-24T03:15:04.442Z,101141.38
2024-01-24T03:17:31.436Z,101151.94
2024-01-24T03:19:58.583Z,101152.84
2024-01-24T03:22:26.241Z,101186.97
2024-01-24T03:24:53.998Z,101169.41
2024-01-24T03:27:21.151Z,101170.25
2024-01-24T03:29:48.761Z,101161.63
2024-01-24T03:32:16.187Z,101140.59
2024-01-24T03:34:56.948Z,101151.09
2024-01-24T03:37:24.486Z,101134.50
2024-01-24T03:39:51.679Z,101154.59
2024-01-24T03:42:19.376Z,101168.53
2024-01-24T03:44:46.430Z,101133.59
2024-01-24T03:47:13.442Z,101159.78
2024-01-24T03:49:40.460Z,101156.28
2024-01-24T03:52:07.512Z,101145.88
2024-01-24T03:54:34.433Z,101189.53
2024-01-24T03:57:01.648Z,101150.16
2024-01-24T03:59:28.735Z,101158.06
2024-01-24T04:01:55.826Z,101161.50
2024-01-24T04:04:22.980Z,101172.94
2024-01-24T04:06:50.144Z,101183.44
2024-01-24T04:09:17.239Z,101179.94
2024-01-24T04:11:44.210Z,101180.81
2024-01-24T04:14:11.206Z,101200.00
2024-01-24T04:16:41.178Z,101200.06
2024-01-24T04:19:08.776Z,101193.84
2024-01-24T04:21:44.258Z,101179.78
2024-01-24T04:24:11.663Z,101204.34
2024-01-24T04:26:39.161Z,101188.56
2024-01-24T04:29:07.778Z,101177.19
2024-01-24T04:31:35.415Z,101163.09
2024-01-24T04:34:02.484Z,101180.59
2024-01-24T04:36:29.670Z,101170.06
2024-01-24T04:38:56.622Z,101157.81
2024-01-24T04:41:23.697Z,101177.91
2024-01-24T04:43:50.826Z,101199.75
2024-01-24T04:46:18.029Z,101206.72
2024-01-24T04:48:46.323Z,101170.75
2024-01-24T04:51:13.584Z,101145.38
2024-01-24T04:53:41.231Z,101140.03
2024-01-24T04:56:08.894Z,101143.53
2024-01-24T04:58:35.936Z,101155.72
2024-01-24T05:01:03.603Z,101171.50
2024-01-24T05:03:30.687Z,101155.75
2024-01-24T05:06:04.431Z,101165.34
2024-01-24T05:08:37.068Z,101161.75
2024-01-24T05:11:05.264Z,101144.19
2024-01-24T05:13:32.940Z,101136.22
2024-01-24T05:16:00.495Z,101129.28
2024-01-24T05:18:27.778Z,101150.28
2024-01-24T05:20:54.926Z,101152.06
2024-01-24T05:23:22.263Z,101156.41
2024-01-24T05:25:49.389Z,101162.50
2024-01-24T05:28:17.396Z,101162.41
2024-01-24T05:30:44.463Z,101165.03
2024-01-24T05:33:11.991Z,101144.84
2024-01-24T05:35:39.196Z,101140.47
2024-01-24T05:38:06.283Z,101143.31
2024-01-24T05:40:33.440Z,101161.38
2024-01-24T05:43:02.690Z,101152.59
2024-01-24T05:45:29.783Z,101138.75
2024-01-24T05:47:56.879Z,101154.50
2024-01-24T05:50:23.993Z,101165.00
2024-01-24T05:52:50.931Z,101139.59
2024-01-24T05:55:17.987Z,101174.56
2024-01-24T05:57:47.491Z,101177.31
2024-01-24T06:00:16.005Z,101146.66
2024-01-24T06:02:44.882Z,101174.69
2024-01-24T06:05:13.197Z,101178.31
2024-01-24T06:07:40.647Z,101182.50
2024-01-24T06:10:08.619Z,101184.31
2024-01-24T06:12:35.691Z,101158.06
2024-01-24T06:15:03.770Z,101160.66
2024-01-24T06:17:32.323Z,101166.91
2024-01-24T06:20:01.189Z,101159.88
2024-01-24T06:22:28.986Z,101161.66
2024-01-24T06:24:57.928Z,101174.88
2024-01-24T06:27:25.016Z,101147.91
2024-01-24T06:30:17.317Z,101127.72
2024-01-24T06:32:39.377Z,101125.06
2024-01-24T06:35:09.024Z,101152.28
2024-01-24T06:37:36.080Z,101138.22
2024-01-24T06:40:04.293Z,101153.19
2024-01-24T06:42:31.875Z,101165.31
2024-01-24T06:44:59.036Z,101160.13
2024-01-24T06:47:26.175Z,101167.03
2024-01-24T06:49:53.237Z,101155.66
2024-01-24T06:52:20.240Z,101137.28
2024-01-24T06:54:47.274Z,101160.88
2024-01-24T06:57:14.301Z,101139.00
2024-01-24T06:59:41.460Z,101143.22
2024-01-24T07:02:08.548Z,101141.44
2024-01-24T07:04:35.811Z,101159.88
2024-01-24T07:07:03.196Z,101134.41
2024-01-24T07:09:30.385Z,101130.06
2024-01-24T07:11:58.057Z,101140.47
2024-01-24T07:14:25.813Z,101151.88
2024-01-24T07:16:52.914Z,101168.47
2024-01-24T07:19:20.104Z,101176.34
2024-01-24T07:21:48.361Z,101160.44
2024-01-24T07:24:17.769Z,101162.06
2024-01-24T07:26:48.500Z,101156.78
2024-01-24T07:29:16.707Z,101148.84
2024-01-24T07:31:43.830Z,101154.94
2024-01-24T07:34:12.927Z,101189.03
2024-01-24T07:36:40.129Z,101174.16
2024-01-24T07:39:07.917Z,101183.91
2024-01-24T07:41:37.888Z,101192.66
2024-01-24T07:44:05.372Z,101187.47
2024-01-24T07:46:33.823Z,101181.28
2024-01-24T07:49:01.392Z,101182.19
2024-01-24T07:51:28.838Z,101191.91
2024-01-24T07:53:58.101Z,101187.47
2024-01-24T07:56:28.198Z,101195.47
2024-01-24T07:58:55.419Z,101211.28
2024-01-24T08:01:23.094Z,101218.50
2024-01-24T08:03:51.365Z,101226.38
2024-01-24T08:06:19.586Z,101218.56
2024-01-24T08:08:47.033Z,101209.88
2024-01-24T08:11:14.256Z,101216.06
2024-01-24T08:13:42.339Z,101235.41
2024-01-24T08:16:11.410Z,101247.78
2024-01-24T08:18:38.792Z,101256.59
2024-01-24T08:21:08.756Z,101225.91
2024-01-24T08:23:42.979Z,101215.44
2024-01-24T08:26:18.022Z,101237.28
2024-01-24T08:28:45.120Z,101242.56
2024-01-24T08:31:15.561Z,101230.28
2024-01-24T08:33:42.941Z,101222.38
2024-01-24T08:36:10.402Z,101235.50
2024-01-24T08:38:37.828Z,101216.09
2024-01-24T08:41:05.406Z,101209.97
2024-01-24T08:43:33.418Z,101245.16
2024-01-24T08:46:01.023Z,101247.78
2024-01-24T08:48:28.501Z,101265.31
2024-01-24T08:50:55.935Z,101264.34
2024-01-24T08:53:23.271Z,101282.75
2024-01-24T08:55:50.853Z,101292.47
2024-01-24T08:58:18.124Z,101308.09
2024-01-24T09:00:46.525Z,101280.09
2024-01-24T09:03:15.069Z,101281.94
2024-01-24T09:06:16.511Z,101312.66
2024-01-24T09:08:45.914Z,101312.69
2024-01-24T09:11:14.372Z,101294.34
2024-01-24T09:13:43.978Z,101303.97
2024-01-24T09:16:11.404Z,101309.25
2024-01-24T09:18:39.586Z,101305.69
2024-01-24T09:21:07.008Z,101323.19
2024-01-24T09:23:34.371Z,101332.03
2024-01-24T09:26:04.122Z,101311.94
2024-01-24T09:28:31.871Z,101304.19
2024-01-24T09:30:59.191Z,101324.25
2024-01-24T09:33:26.545Z,101322.53
2024-01-24T09:35:54.063Z,101305.00
2024-01-24T09:38:21.340Z,101307.59
2024-01-24T09:40:48.795Z,101328.56
2024-01-24T09:43:17.669Z,101325.97
2024-01-24T09:45:45.826Z,101335.53
2024-01-24T09:48:13.220Z,101342.50
2024-01-24T09:50:41.437Z,101339.88
2024-01-24T09:53:10.485Z,101331.97
2024-01-24T09:55:38.442Z,101332.03
2024-01-24T09:58:08.035Z,101336.44
2024-01-24T10:00:36.701Z,101339.88
2024-01-24T10:03:04.929Z,101361.75
2024-01-24T10:05:36.778Z,101377.59
2024-01-24T10:08:04.581Z,101386.41
2024-01-24T10:10:31.701Z,101385.53
2024-01-24T10:12:58.895Z,101397.66
2024-01-24T10:15:26.203Z,101395.81
2024-01-24T10:17:58.119Z,101380.94
2024-01-24T10:20:26.034Z,101367.00
2024-01-24T10:22:55.264Z,101374.81
2024-01-24T10:25:23.258Z,101380.97
2024-01-24T10:27:50.705Z,101387.00
2024-01-24T10:30:18.614Z,101381.66
2024-01-24T10:32:50.030Z,101363.25
2024-01-24T10:35:17.877Z,101390.41
2024-01-24T10:37:45.587Z,101389.41
2024-01-24T10:40:16.855Z,101375.34
2024-01-24T10:42:45.914Z,101373.56
2024-01-24T10:45:14.247Z,101371.84
2024-01-24T10:47:42.687Z,101392.84
2024-01-24T10:50:18.746Z,101398.13
2024-01-24T10:52:46.536Z,101378.72
2024-01-24T10:55:14.787Z,101383.97
2024-01-24T10:57:44.152Z,101378.72
2024-01-24T11:00:14.481Z,101390.97
2024-01-24T11:02:43.085Z,101383.81
2024-01-24T11:05:25.645Z,101395.88
2024-01-24T11:08:19.081Z,101387.84
2024-01-24T11:10:47.610Z,101364.09
2024-01-24T11:13:18.219Z,101376.31
2024-01-24T11:15:46.755Z,101369.25
2024-01-24T11:18:32.233Z,101359.53
2024-01-24T11:21:01.449Z,101352.47
2024-01-24T11:23:44.709Z,101368.19
2024-01-24T11:26:18.439Z,101366.41
2024-01-24T11:28:47.157Z,101338.38
2024-01-24T11:31:15.483Z,101348.81
2024-01-24T11:34:14.360Z,101338.13
2024-01-24T11:36:52.134Z,101349.53
2024-01-24T11:39:31.856Z,101353.72
2024-01-24T11:42:35.338Z,101354.59
2024-01-24T11:45:18.938Z,101371.31
2024-01-24T11:47:47.061Z,101371.31
2024-01-24T11:50:15.829Z,101374.00
2024-01-24T11:52:43.950Z,101376.53
2024-01-24T11:55:11.293Z,101356.34
2024-01-24T11:57:38.549Z,101352.09
2024-01-24T12:00:07.899Z,101369.66
2024-01-24T12:02:36.223Z,101369.66
2024-01-24T12:05:05.012Z,101374.94
2024-01-24T12:07:32.124Z,101358.16
2024-01-24T12:09:59.466Z,101340.78
2024-01-24T12:12:28.671Z,101364.34
2024-01-24T12:14:59.007Z,101344.19
2024-01-24T12:17:26.599Z,101359.91
2024-01-24T12:19:54.070Z,101357.19
2024-01-24T12:22:21.888Z,101352.63
2024-01-24T12:24:51.103Z,101354.34
2024-01-24T12:27:18.778Z,101358.78
2024-01-24T12:29:56.035Z,101351.66
2024-01-24T12:32:23.635Z,101342.88
2024-01-24T12:34:54.526Z,101348.06
2024-01-24T12:37:22.999Z,101342.75
2024-01-24T12:39:54.492Z,101362.00
2024-01-24T12:42:21.929Z,101362.72
2024-01-24T12:44:55.025Z,101344.34
2024-01-24T12:47:23.478Z,101364.25
2024-01-24T12:49:50.725Z,101403.50
2024-01-24T12:52:18.373Z,101368.06
2024-01-24T12:54:45.704Z,101353.16
2024-01-24T12:57:12.823Z,101365.41
2024-01-24T12:59:39.871Z,101383.00
2024-01-24T13:02:10.736Z,101366.13
2024-01-24T13:04:38.130Z,101349.47
2024-01-24T13:07:06.118Z,101350.19
2024-01-24T13:09:37.200Z,101389.41
2024-01-24T13:12:09.803Z,101365.28
2024-01-24T13:14:37.451Z,101358.25
2024-01-24T13:17:06.322Z,101354.81
2024-01-24T13:19:33.545Z,101351.16
2024-01-24T13:22:01.049Z,101374.56
2024-01-24T13:24:32.180Z,101376.03
2024-01-24T13:26:59.635Z,101388.66
2024-01-24T13:29:26.915Z,101373.16
2024-01-24T13:31:54.203Z,101395.28
2024-01-24T13:34:21.657Z,101391.91
2024-01-24T13:36:49.119Z,101399.88
2024-01-24T13:39:22.396Z,101399.13
2024-01-24T13:41:51.049Z,101402.13
2024-01-24T13:44:18.201Z,101433.63
2024-01-24T13:46:45.535Z,101439.94
2024-01-24T13:49:12.786Z,101415.69
2024-01-24T13:51:43.333Z,101437.47
2024-01-24T13:54:12.299Z,101420.97
2024-01-24T13:56:39.545Z,101413.09
2024-01-24T13:59:06.779Z,101453.16
2024-01-24T14:01:36.332Z,101464.78
2024-01-24T14:04:09.879Z,101478.81
2024-01-24T14:06:37.667Z,101484.31
2024-01-24T14:09:05.256Z,101446.78
2024-01-24T14:11:32.537Z,101461.69
2024-01-24T14:14:03.613Z,101478.28
2024-01-24T14:16:30.854Z,101478.22
2024-01-24T14:18:58.275Z,101502.00
2024-01-24T14:21:25.700Z,101473.00
2024-01-24T14:23:52.968Z,101507.78
2024-01-24T14:26:20.098Z,101510.59
2024-01-24T14:28:47.852Z,101521.16
2024-01-24T14:31:15.132Z,101532.69
2024-01-24T14:33:42.387Z,101511.78
2024-01-24T14:36:09.709Z,101527.53
2024-01-24T14:38:37.231Z,101542.53
2024-01-24T14:41:04.553Z,101526.91
2024-01-24T14:43:31.883Z,101534.78
2024-01-24T14:45:59.217Z,101518.19
2024-01-24T14:48:26.597Z,101547.28
2024-01-24T14:50:53.820Z,101531.56
2024-01-24T14:53:21.164Z,101556.06
2024-01-24T14:55:48.250Z,101584.22
2024-01-24T14:58:18.325Z,101554.22
2024-01-24T15:00:48.413Z,101562.09
2024-01-24T15:03:16.242Z,101586.75
2024-01-24T15:05:43.879Z,101584.16
2024-01-24T15:08:11.005Z,101603.63
2024-01-24T15:10:38.151Z,101587.84
2024-01-24T15:13:05.622Z,101586.16
2024-01-24T15:15:34.382Z,101565.19
2024-01-24T15:18:01.717Z,101590.56
2024-01-24T15:20:29.208Z,101585.31
2024-01-24T15:22:56.372Z,101542.56
2024-01-24T15:25:23.611Z,101580.16
2024-01-24T15:27:51.057Z,101587.19
2024-01-24T15:30:18.463Z,101582.81
2024-01-24T15:32:46.212Z,101585.56
2024-01-24T15:35:13.642Z,101604.03
2024-01-24T15:37:40.911Z,101604.03
2024-01-24T15:40:12.317Z,101611.97
2024-01-24T15:42:43.177Z,101606.03
2024-01-24T15:45:11.644Z,101635.81
2024-01-24T15:47:39.562Z,101635.00
2024-01-24T15:50:07.114Z,101636.72
2024-01-24T15:52:35.462Z,101628.84
2024-01-24T15:55:06.775Z,101630.66
2024-01-24T15:57:34.078Z,101622.72
2024-01-24T16:00:01.235Z,101614.91
2024-01-24T16:02:30.300Z,101620.16
2024-01-24T16:05:01.041Z,101629.84
2024-01-24T16:07:28.746Z,101640.47
2024-01-24T16:09:56.615Z,101652.78
2024-01-24T16:12:26.284Z,101657.16
2024-01-24T16:14:56.097Z,101645.81
2024-01-24T16:17:23.729Z,101637.00
2024-01-24T16:19:53.985Z,101653.69
2024-01-24T16:22:26.843Z,101659.00
2024-01-24T16:24:59.847Z,101642.38
2024-01-24T16:27:27.017Z,101655.53
2024-01-24T16:29:54.071Z,101667.84
2024-01-24T16:32:21.369Z,101661.38
2024-01-24T16:34:49.237Z,101667.53
2024-01-24T16:37:16.565Z,101678.06
2024-01-24T16:39:44.601Z,101689.56
2024-01-24T16:42:11.862Z,101680.84
2024-01-24T16:44:38.956Z,101687.88
2024-01-24T16:47:07.747Z,101694.03
2024-01-24T16:49:35.372Z,101676.41
2024-01-24T16:52:02.948Z,101670.31
2024-01-24T16:54:30.099Z,101680.88
2024-01-24T16:56:57.135Z,101681.81
2024-01-24T16:59:24.325Z,101696.75
2024-01-24T17:01:51.386Z,101687.94
2024-01-24T17:04:18.561Z,101680.06
2024-01-24T17:06:46.272Z,101671.28
2024-01-24T17:09:13.652Z,101706.50
2024-01-24T17:11:40.751Z,101673.22
2024-01-24T17:14:07.831Z,101689.00
2024-01-24T17:16:36.872Z,101690.75
2024-01-24T17:19:04.092Z,101695.22
2024-01-24T17:21:32.817Z,101712.84
2024-01-24T17:24:02.203Z,101739.22
2024-01-24T17:26:29.757Z,101716.31
2024-01-24T17:28:58.281Z,101740.84
2024-01-24T17:31:27.408Z,101720.63
2024-01-24T17:33:57.693Z,101720.72
2024-01-24T17:36:24.944Z,101706.69
2024-01-24T17:38:52.039Z,101700.59
2024-01-24T17:41:19.120Z,101711.16
2024-01-24T17:43:46.291Z,101694.50
2024-01-24T17:46:13.454Z,101691.88
2024-01-24T17:48:44.939Z,101721.72
2024-01-24T17:51:15.179Z,101712.13
2024-01-24T17:53:43.269Z,101725.34
2024-01-24T17:56:12.495Z,101736.72
2024-01-24T17:58:39.736Z,101734.16
2024-01-24T18:01:06.967Z,101730.63
2024-01-24T18:03:35.995Z,101742.06
2024-01-24T18:06:03.401Z,101747.34
2024-01-24T18:08:30.830Z,101738.63
2024-01-24T18:10:58.630Z,101700.06
2024-01-24T18:13:27.399Z,101756.16
2024-01-24T18:15:56.325Z,101743.00
2024-01-24T18:18:23.952Z,101731.59
2024-01-24T18:20:54.942Z,101729.03
2024-01-24T18:23:22.573Z,101703.63
2024-01-24T18:25:50.941Z,101717.63
2024-01-24T18:28:18.927Z,101763.22
2024-01-24T18:30:46.837Z,101702.75
2024-01-24T18:33:17.533Z,101723.81
2024-01-24T18:35:48.613Z,101672.94
2024-01-24T18:38:15.938Z,101724.69
2024-01-24T18:40:43.459Z,101743.09
2024-01-24T18:43:11.664Z,101763.25
2024-01-24T18:45:38.981Z,101752.72
2024-01-24T18:48:07.386Z,101765.88
2024-01-24T18:50:34.717Z,101779.06
2024-01-24T18:53:01.928Z,101755.41
2024-01-24T18:55:29.517Z,101754.50
2024-01-24T18:57:56.853Z,101773.81
2024-01-24T19:00:24.315Z,101787.84
2024-01-24T19:02:57.055Z,101796.59
2024-01-24T19:05:33.927Z,101785.19
2024-01-24T19:08:13.927Z,101722.06
2024-01-24T19:10:41.604Z,101743.09
2024-01-24T19:13:08.948Z,101770.31
2024-01-24T19:15:36.393Z,101744.00
2024-01-24T19:18:10.800Z,101793.09
2024-01-24T19:20:42.175Z,101782.59
2024-01-24T19:23:11.661Z,101791.34
2024-01-24T19:25:41.845Z,101784.31
2024-01-24T19:28:10.917Z,101793.94
2024-01-24T19:30:38.256Z,101795.69
2024-01-24T19:33:08.206Z,101795.72
2024-01-24T19:35:36.162Z,101796.63
2024-01-24T19:38:04.220Z,101781.69
2024-01-24T19:40:32.552Z,101764.16
2024-01-24T19:43:00.581Z,101784.31
2024-01-24T19:45:27.921Z,101770.28
2024-01-24T19:47:56.055Z,101784.31
2024-01-24T19:50:28.187Z,101771.16
2024-01-24T19:52:56.677Z,101777.28
2024-01-24T19:55:24.998Z,101749.22
2024-01-24T19:57:52.568Z,101785.19
2024-01-24T20:00:20.316Z,101777.31
2024-01-24T20:02:47.663Z,101785.19
2024-01-24T20:05:15.383Z,101754.50
2024-01-24T20:07:44.843Z,101773.78
2024-01-24T20:10:12.580Z,101756.25
2024-01-24T20:12:40.027Z,101757.16
2024-01-24T20:15:08.560Z,101757.16
2024-01-24T20:17:35.888Z,101715.91
2024-01-24T20:20:03.957Z,101708.03
2024-01-24T20:22:31.416Z,101762.41
2024-01-24T20:25:14.596Z,101726.47
2024-01-24T20:27:41.948Z,101760.66
2024-01-24T20:30:09.604Z,101580.09
2024-01-24T20:32:42.962Z,101735.19
2024-01-24T20:35:16.581Z,101733.47
2024-01-24T20:37:43.816Z,101703.66
2024-01-24T20:40:11.790Z,101743.09
2024-01-24T20:42:39.235Z,101763.25
2024-01-24T20:45:07.155Z,101623.03
2024-01-24T20:47:35.397Z,101763.28
2024-01-24T20:50:03.202Z,101678.25
2024-01-24T20:52:31.138Z,101593.22
2024-01-24T20:54:58.563Z,101711.53
2024-01-24T20:57:26.025Z,101789.56
2024-01-24T20:59:54.611Z,101743.09
2024-01-24T21:02:22.590Z,101733.44
2024-01-24T21:04:50.407Z,101627.38
2024-01-24T21:07:17.880Z,101664.16
2024-01-24T21:09:45.151Z,101621.25
2024-01-24T21:12:12.800Z,101637.03
2024-01-24T21:14:40.199Z,101725.56
2024-01-24T21:17:07.473Z,101713.28
2024-01-24T21:19:34.863Z,101535.44
2024-01-24T21:22:02.965Z,101696.66
2024-01-24T21:24:30.433Z,101745.72
2024-01-24T21:26:57.766Z,101740.47
2024-01-24T21:29:24.968Z,101743.09
2024-01-24T21:31:52.166Z,101733.44
2024-01-24T21:34:19.510Z,101539.84
2024-01-24T21:36:48.621Z,101729.06
2024-01-24T21:39:17.804Z,101697.53
2024-01-24T21:41:47.932Z,101614.28
2024-01-24T21:44:15.106Z,101767.69
2024-01-24T21:46:42.237Z,101739.59
2024-01-24T21:49:09.358Z,101751.88
2024-01-24T21:51:37.414Z,101602.88
2024-01-24T21:54:05.698Z,101620.44
2024-01-24T21:56:33.479Z,101545.97
2024-01-24T21:59:01.072Z,101615.13
2024-01-24T22:01:34.739Z,101736.97
2024-01-24T22:04:04.423Z,101634.41
2024-01-24T22:06:34.601Z,101770.28
2024-01-24T22:09:08.366Z,101701.00
2024-01-24T22:11:42.338Z,101632.66
2024-01-24T22:14:09.877Z,101684.34
2024-01-24T22:16:42.637Z,101721.19
2024-01-24T22:19:13.521Z,101793.09
2024-01-24T22:21:45.846Z,101728.19
2024-01-24T22:24:15.877Z,101758.88
2024-01-24T22:26:45.839Z,101779.91
2024-01-24T22:29:13.002Z,101713.25
2024-01-24T22:31:48.781Z,101793.97
2024-01-24T22:34:19.072Z,101783.44
2024-01-24T22:36:46.333Z,101767.66
2024-01-24T22:39:16.612Z,101787.81
2024-01-24T22:41:46.801Z,101777.28
2024-01-24T22:44:16.830Z,101794.84
2024-01-24T22:46:46.954Z,101793.94
2024-01-24T22:49:14.235Z,101782.56
2024-01-24T22:51:41.412Z,101780.78
2024-01-24T22:54:11.483Z,101780.81
2024-01-24T22:56:38.534Z,101794.84
2024-01-24T22:59:08.166Z,101778.16
2024-01-24T23:01:35.263Z,101780.78
2024-01-24T23:04:05.809Z,101783.44
2024-01-24T23:06:33.066Z,101787.81
2024-01-24T23:09:00.125Z,101779.06
2024-01-24T23:11:27.201Z,101769.41
2024-01-24T23:13:54.315Z,101782.56
2024-01-24T23:16:21.551Z,101774.66
2024-01-24T23:18:51.934Z,101772.91
2024-01-24T23:21:19.085Z,101750.97
2024-01-24T23:23:46.096Z,101769.38
2024-01-24T23:26:13.049Z,101766.78
2024-01-24T23:28:40.185Z,101773.78
2024-01-24T23:31:08.284Z,101776.44
2024-01-24T23:33:36.353Z,101780.78
2024-01-24T23:36:09.606Z,101780.81
2024-01-24T23:38:36.691Z,101768.50
2024-01-24T23:41:03.882Z,101774.66
2024-01-24T23:43:30.887Z,101794.81
2024-01-24T23:45:58.147Z,101766.78
2024-01-24T23:48:25.443Z,101760.66
2024-01-24T23:50:52.576Z,101715.94
2024-01-24T23:53:19.692Z,101715.03
2024-01-24T23:55:50.582Z,101729.06
2024-01-24T23:58:21.582Z,101729.06
